Time;durP1;ratioP1;P1;durP2;ratioP2;P2;SDS_P1;SDS_P2;PMS_P1;PMS_P2;Temp;Humidity;BMP_temperature;BMP_pressure;BME280_temperature;BME280_humidity;BME280_pressure;Samples;Min_cycle;Max_cycle;Signal;HPM_P1;HPM_P2
2022/04/25 03:01:46;;;;;;;2.33;2.08;;;18.00;47.90;;;;;;5325700;23;45888;-67
2022/04/25 03:04:12;;;;;;;2.10;1.95;;;18.00;47.90;;;;;;4897546;28;45163;-67
2022/04/25 03:06:37;;;;;;;2.20;2.00;;;18.00;47.90;;;;;;4947378;28;45203;-67
2022/04/25 03:09:03;;;;;;;2.33;2.13;;;18.00;47.90;;;;;;4929730;28;45574;-67
2022/04/25 03:11:29;;;;;;;2.30;2.10;;;18.00;47.90;;;;;;4896282;28;45455;-67
2022/04/25 03:13:55;;;;;;;2.30;2.10;;;18.00;47.90;;;;;;4908609;28;45438;-67
2022/04/25 03:16:21;;;;;;;2.25;2.03;;;18.00;47.90;;;;;;4906651;28;45463;-67
2022/04/25 03:18:48;;;;;;;2.10;1.90;;;18.00;47.90;;;;;;4895840;28;45282;-67
2022/04/25 03:21:13;;;;;;;2.30;2.10;;;18.00;47.90;;;;;;4902827;28;44778;-67
2022/04/25 03:23:39;;;;;;;3.00;2.30;;;18.00;47.90;;;;;;4915955;28;45447;-67
2022/04/25 03:26:05;;;;;;;2.33;2.13;;;18.00;47.90;;;;;;4895001;28;45479;-67
2022/04/25 03:28:31;;;;;;;2.30;2.10;;;18.00;47.90;;;;;;4898530;28;44949;-67
2022/04/25 03:30:57;;;;;;;2.35;2.15;;;18.00;47.90;;;;;;4899230;28;45408;-67
2022/04/25 03:33:22;;;;;;;2.25;2.05;;;18.00;47.90;;;;;;4880926;28;47128;-66
2022/04/25 03:35:48;;;;;;;2.10;1.88;;;18.00;47.90;;;;;;4908773;28;45236;-67
2022/04/25 03:38:21;;;;;;;2.33;2.13;;;18.00;47.90;;;;;;4907760;28;45225;-67
2022/04/25 03:40:47;;;;;;;2.17;1.98;;;18.00;47.90;;;;;;4912841;28;45877;-67
2022/04/25 03:43:17;;;;;;;1.95;1.75;;;18.00;47.90;;;;;;4904706;28;45773;-67
2022/04/25 03:45:42;;;;;;;2.00;1.80;;;18.00;47.90;;;;;;4905569;28;45490;-67
2022/04/25 03:48:08;;;;;;;2.35;2.15;;;18.00;47.90;;;;;;4921993;28;45357;-67
2022/04/25 03:50:34;;;;;;;2.38;2.00;;;18.00;47.90;;;;;;4908692;28;45095;-67
2022/04/25 03:53:10;;;;;;;2.72;1.90;;;18.00;47.90;;;;;;4914485;28;46647;-67
2022/04/25 03:58:21;;;;;;;3.00;2.47;;;18.00;47.90;;;;;;4912513;28;45224;-67
2022/04/25 04:00:47;;;;;;;2.38;2.17;;;17.90;47.90;;;;;;4892750;28;45356;-67
2022/04/25 04:03:14;;;;;;;2.08;1.85;;;18.00;47.90;;;;;;4909455;28;45221;-67
2022/04/25 04:05:43;;;;;;;3.30;2.40;;;18.00;47.90;;;;;;4915312;28;45520;-67
2022/04/25 04:08:09;;;;;;;2.50;2.10;;;18.00;47.90;;;;;;4897987;28;45582;-67
2022/04/25 04:10:35;;;;;;;2.40;2.20;;;18.00;47.90;;;;;;4911196;28;44999;-68
2022/04/25 04:13:01;;;;;;;2.35;2.15;;;18.00;47.90;;;;;;4900198;28;46480;-67
2022/04/25 04:15:26;;;;;;;2.60;2.30;;;18.00;47.90;;;;;;4909693;28;46039;-68
2022/04/25 04:17:52;;;;;;;2.25;2.05;;;17.90;47.90;;;;;;4904613;28;45032;-68
2022/04/25 04:20:17;;;;;;;2.35;2.15;;;17.90;47.90;;;;;;4914577;28;45558;-68
2022/04/25 04:22:43;;;;;;;2.65;2.40;;;17.90;47.90;;;;;;4893272;28;47604;-67
2022/04/25 04:25:12;;;;;;;2.30;2.10;;;17.90;47.90;;;;;;4926459;28;45441;-67
2022/04/25 04:27:39;;;;;;;2.50;2.30;;;17.90;47.90;;;;;;4890605;28;45317;-67
2022/04/25 04:30:09;;;;;;;2.40;2.15;;;17.90;47.90;;;;;;4908199;28;46057;-68
2022/04/25 04:32:35;;;;;;;2.40;2.10;;;17.90;47.90;;;;;;4905505;28;46219;-67
2022/04/25 04:35:02;;;;;;;1.92;1.83;;;17.90;47.90;;;;;;4908551;28;45258;-67
2022/04/25 04:37:33;;;;;;;2.40;2.20;;;17.90;48.50;;;;;;4922253;28;45436;-67
2022/04/25 04:42:44;;;;;;;2.20;2.00;;;17.90;47.90;;;;;;4915456;28;45439;-66
2022/04/25 04:45:11;;;;;;;2.15;1.95;;;17.90;47.90;;;;;;4925530;28;45451;-67
2022/04/25 04:47:38;;;;;;;1.75;1.65;;;17.90;47.90;;;;;;4908738;28;44766;-67
2022/04/25 04:50:04;;;;;;;3.03;2.20;;;17.90;47.90;;;;;;4909672;28;45344;-67
2022/04/25 04:52:33;;;;;;;2.65;2.45;;;18.00;47.90;;;;;;4924108;28;45812;-68
2022/04/25 04:54:58;;;;;;;2.25;2.00;;;17.90;47.90;;;;;;4910680;28;45260;-68
2022/04/25 04:57:24;;;;;;;2.30;2.10;;;17.90;47.90;;;;;;4911616;28;45004;-68
2022/04/25 04:59:50;;;;;;;2.70;2.50;;;17.90;47.90;;;;;;4897647;28;45446;-68
2022/04/25 05:02:16;;;;;;;2.10;1.90;;;17.90;47.90;;;;;;4893017;28;167421;-68
2022/04/25 05:04:43;;;;;;;1.77;1.67;;;17.90;47.90;;;;;;4923149;28;45497;-68
2022/04/25 05:07:09;;;;;;;2.17;1.98;;;17.90;47.90;;;;;;4921522;28;44747;-68
2022/04/25 05:09:34;;;;;;;2.20;2.00;;;17.90;47.90;;;;;;4897143;28;45136;-68
2022/04/25 05:12:01;;;;;;;2.40;2.20;;;17.90;47.90;;;;;;4903795;28;46196;-68
2022/04/25 05:14:26;;;;;;;2.20;2.00;;;17.90;47.90;;;;;;4893588;28;45453;-68
2022/04/25 05:16:52;;;;;;;2.30;1.90;;;17.90;47.90;;;;;;4926574;28;44885;-68
2022/04/25 05:19:17;;;;;;;2.70;2.50;;;17.90;47.90;;;;;;4910389;28;45830;-68
2022/04/25 05:21:43;;;;;;;2.42;2.22;;;17.90;47.90;;;;;;4925306;28;45532;-68
2022/04/25 05:24:09;;;;;;;2.42;2.22;;;17.90;47.90;;;;;;4905843;28;45538;-68
2022/04/25 05:26:35;;;;;;;1.98;1.88;;;17.90;47.90;;;;;;4909409;28;45294;-68
2022/04/25 05:29:01;;;;;;;2.38;2.17;;;17.90;47.90;;;;;;4931014;28;45643;-68
2022/04/25 05:31:26;;;;;;;2.30;2.10;;;17.90;47.90;;;;;;4928338;28;45991;-67
2022/04/25 05:33:52;;;;;;;2.38;2.17;;;17.90;47.90;;;;;;4906745;28;44946;-68
2022/04/25 05:36:17;;;;;;;2.15;1.95;;;17.90;47.90;;;;;;4925532;28;45840;-68
2022/04/25 05:38:43;;;;;;;2.38;2.17;;;17.90;47.90;;;;;;4891948;28;45286;-66
2022/04/25 05:41:09;;;;;;;1.95;1.80;;;17.90;47.90;;;;;;4892903;28;46501;-66
2022/04/25 05:43:39;;;;;;;2.80;2.47;;;17.90;47.90;;;;;;4923430;28;47075;-67
2022/04/25 05:46:05;;;;;;;2.20;2.00;;;17.90;47.90;;;;;;4908178;28;45757;-67
2022/04/25 05:54:02;;;;;;;1.85;1.75;;;17.90;47.90;;;;;;4913710;28;45053;-67
2022/04/25 05:56:27;;;;;;;1.88;1.77;;;17.90;47.90;;;;;;4928231;28;44807;-66
2022/04/25 05:58:53;;;;;;;2.17;1.98;;;17.80;47.80;;;;;;4914278;28;44954;-67
2022/04/25 06:01:19;;;;;;;2.40;2.05;;;17.80;47.80;;;;;;4896552;28;45645;-67
2022/04/25 06:03:44;;;;;;;;;;;17.90;47.90;;;;;;4914329;28;45272;-68
2022/04/25 06:06:10;;;;;;;;;;;17.90;47.90;;;;;;4935129;28;45933;-70
2022/04/25 06:08:36;;;;;;;2.85;2.30;;;17.90;47.90;;;;;;4932449;28;45525;-66
2022/04/25 06:11:02;;;;;;;2.10;1.90;;;18.00;47.70;;;;;;4931959;28;46066;-66
2022/04/25 06:13:28;;;;;;;;;;;18.00;47.50;;;;;;4921369;28;45359;-69
2022/04/25 06:15:53;;;;;;;;;;;18.10;47.60;;;;;;4901396;28;45574;-67
2022/04/25 06:18:19;;;;;;;;;;;18.20;47.40;;;;;;4934162;28;45113;-67
2022/04/25 06:20:44;;;;;;;;;;;18.30;47.30;;;;;;4937792;28;45398;-67
2022/04/25 06:23:10;;;;;;;;;;;18.40;47.20;;;;;;4937211;28;45329;-68
2022/04/25 06:25:37;;;;;;;;;;;18.50;47.00;;;;;;4930399;28;45249;-70
2022/04/25 06:28:03;;;;;;;;;;;18.60;47.50;;;;;;4898497;28;45277;-67
2022/04/25 06:30:29;;;;;;;;;;;18.70;46.70;;;;;;4899097;28;47089;-67
2022/04/25 06:32:56;;;;;;;;;;;18.80;46.70;;;;;;4917373;28;45261;-67
2022/04/25 06:35:21;;;;;;;;;;;18.90;46.50;;;;;;4914364;28;45385;-66
2022/04/25 06:37:47;;;;;;;;;;;19.00;46.50;;;;;;4900752;28;45367;-67
2022/04/25 06:40:12;;;;;;;;;;;19.10;46.40;;;;;;4902127;28;45434;-67
2022/04/25 06:42:38;;;;;;;;;;;19.20;46.20;;;;;;4918830;28;45474;-68
2022/04/25 06:45:04;;;;;;;;;;;19.30;46.20;;;;;;4934094;28;45288;-66
2022/04/25 06:47:29;;;;;;;;;;;19.40;46.00;;;;;;4899081;28;45588;-66
2022/04/25 06:49:55;;;;;;;;;;;19.50;45.90;;;;;;4935957;28;46678;-65
2022/04/25 06:52:20;;;;;;;;;;;19.60;45.70;;;;;;4938693;28;45203;-66
2022/04/25 06:54:46;;;;;;;;;;;19.70;45.70;;;;;;4914082;28;45305;-66
2022/04/25 06:57:12;;;;;;;;;;;19.80;45.60;;;;;;4905155;28;46600;-70
2022/04/25 06:59:38;;;;;;;;;;;19.90;45.70;;;;;;4915818;28;46580;-67
2022/04/25 07:02:03;;;;;;;;;;;20.00;45.40;;;;;;4935256;28;44892;-68
2022/04/25 07:04:29;;;;;;;;;;;20.10;45.40;;;;;;4916911;28;44865;-68
2022/04/25 07:06:55;;;;;;;;;;;20.20;45.20;;;;;;4914412;28;45345;-68
2022/04/25 07:09:20;;;;;;;;;;;20.30;45.20;;;;;;4926612;28;46774;-67
2022/04/25 07:11:46;;;;;;;;;;;20.40;45.10;;;;;;4913699;28;45090;-66
2022/04/25 07:14:15;;;;;;;;;;;20.50;45.00;;;;;;4934109;28;44973;-68
2022/04/25 07:16:41;;;;;;;;;;;20.60;44.80;;;;;;4921803;28;45314;-67
2022/04/25 07:19:06;;;;;;;;;;;20.70;44.80;;;;;;4917142;28;46764;-66
2022/04/25 07:29:47;;;;;;;1.42;1.33;;;21.10;44.50;;;;;;4931553;28;45566;-68
2022/04/25 07:32:14;;;;;;;2.15;1.30;;;21.20;44.50;;;;;;4899425;28;44917;-70
2022/04/25 07:34:41;;;;;;;1.30;1.20;;;21.30;44.50;;;;;;4934850;28;45509;-68
2022/04/25 07:37:07;;;;;;;4.03;1.33;;;21.40;44.40;;;;;;4921372;28;45366;-67
2022/04/25 07:39:32;;;;;;;1.60;1.50;;;21.50;44.40;;;;;;4899427;28;45119;-68
2022/04/25 07:41:58;;;;;;;1.50;1.40;;;21.60;44.30;;;;;;4896604;28;44704;-67
2022/04/25 07:44:25;;;;;;;1.33;1.23;;;21.70;44.20;;;;;;4930625;28;45473;-67
2022/04/25 07:46:51;;;;;;;1.40;1.30;;;21.70;44.20;;;;;;4913750;28;45631;-66
2022/04/25 07:49:17;;;;;;;1.70;1.20;;;21.80;44.10;;;;;;4903345;28;45198;-68
2022/04/25 07:51:43;;;;;;;1.45;1.17;;;21.90;44.00;;;;;;4897541;28;45276;-70
2022/04/25 07:54:09;;;;;;;1.50;1.30;;;22.00;44.10;;;;;;4900578;28;45741;-68
2022/04/25 07:56:35;;;;;;;1.38;1.27;;;22.10;43.90;;;;;;4928742;28;45572;-68
2022/04/25 07:59:01;;;;;;;2.15;1.13;;;22.20;43.90;;;;;;4913844;28;45545;-68
2022/04/25 08:01:27;;;;;;;1.30;1.20;;;22.20;43.80;;;;;;4908711;28;45496;-65
2022/04/25 08:03:54;;;;;;;2.53;1.10;;;22.30;43.70;;;;;;4927586;28;46367;-67
2022/04/25 08:06:22;;;;;;;0.90;0.90;;;22.40;43.70;;;;;;4912915;28;45484;-66
2022/04/25 08:08:49;;;;;;;1.08;1.00;;;22.50;43.60;;;;;;4911722;28;47279;-67
2022/04/25 08:11:15;;;;;;;1.25;1.15;;;22.50;43.50;;;;;;4933929;28;45231;-67
2022/04/25 08:19:09;;;;;;;1.00;0.98;;;22.80;43.30;;;;;;4921844;28;45842;-67
2022/04/25 08:21:37;;;;;;;1.20;1.08;;;22.80;43.20;;;;;;4894096;28;45074;-67
2022/04/25 08:24:03;;;;;;;1.17;1.05;;;22.90;43.30;;;;;;4913988;28;45395;-68
2022/04/25 08:26:29;;;;;;;1.30;1.20;;;23.00;43.20;;;;;;4916465;28;45126;-67
2022/04/25 08:28:54;;;;;;;1.13;1.02;;;23.00;43.20;;;;;;4926342;28;45862;-68
2022/04/25 08:31:21;;;;;;;0.75;0.75;;;23.10;43.10;;;;;;4912905;28;45494;-67
2022/04/25 08:33:48;;;;;;;1.10;1.00;;;23.10;43.00;;;;;;4914483;28;44737;-66
2022/04/25 08:36:15;;;;;;;0.82;0.82;;;23.20;43.00;;;;;;4928817;28;45512;-69
2022/04/25 08:38:43;;;;;;;1.00;0.90;;;23.30;43.00;;;;;;4925761;28;47168;-67
2022/04/25 08:41:10;;;;;;;1.20;1.05;;;23.30;42.90;;;;;;4920208;28;45008;-67
2022/04/25 08:43:37;;;;;;;1.10;1.00;;;23.30;42.90;;;;;;4927898;28;45021;-67
2022/04/25 08:46:05;;;;;;;1.75;0.80;;;23.40;42.90;;;;;;4915565;28;45499;-68
2022/04/25 08:48:31;;;;;;;1.17;1.08;;;23.40;42.80;;;;;;4903417;28;46216;-67
2022/04/25 08:50:57;;;;;;;1.50;1.08;;;23.50;42.80;;;;;;4893958;28;46481;-66
2022/04/25 08:53:23;;;;;;;1.05;1.00;;;23.50;42.80;;;;;;4915936;28;45531;-68
2022/04/25 08:55:48;;;;;;;1.20;1.10;;;23.50;42.70;;;;;;4898674;28;45290;-66
2022/04/25 08:58:14;;;;;;;1.30;1.20;;;23.50;42.70;;;;;;4876089;28;46844;-66
2022/04/25 09:00:40;;;;;;;1.00;0.90;;;23.50;42.80;;;;;;4895725;28;45342;-67
2022/04/25 09:03:05;;;;;;;0.98;0.98;;;23.50;42.90;;;;;;4911169;28;45066;-66
2022/04/25 09:05:36;;;;;;;0.80;0.80;;;23.40;42.90;;;;;;4913356;28;45176;-68
2022/04/25 09:08:02;;;;;;;0.90;0.90;;;23.40;42.90;;;;;;4900019;28;45191;-66
2022/04/25 09:10:27;;;;;;;0.90;0.90;;;23.30;43.10;;;;;;4928252;28;44920;-67
2022/04/25 09:12:53;;;;;;;1.00;0.90;;;23.30;43.30;;;;;;4913551;28;45761;-66
2022/04/25 09:15:21;;;;;;;1.10;1.10;;;23.20;43.30;;;;;;4914694;28;45687;-66
2022/04/25 09:17:46;;;;;;;0.80;0.80;;;23.20;43.40;;;;;;4914732;28;45815;-67
2022/04/25 09:20:12;;;;;;;1.05;0.98;;;23.10;43.40;;;;;;4913805;28;44882;-67
2022/04/25 09:22:42;;;;;;;0.95;0.90;;;23.10;43.50;;;;;;4933992;28;45096;-72
2022/04/25 09:25:09;;;;;;;1.00;1.00;;;23.10;43.50;;;;;;4915593;28;45280;-67
2022/04/25 09:27:35;;;;;;;0.77;0.77;;;23.10;43.60;;;;;;4928470;28;47160;-68
2022/04/25 09:30:12;;;;;;;1.02;0.98;;;23.00;43.60;;;;;;4913636;28;45206;-66
2022/04/25 09:32:37;;;;;;;1.40;1.02;;;22.90;43.50;;;;;;4898482;28;45262;-66
2022/04/25 09:35:24;;;;;;;1.27;1.00;;;22.90;43.60;;;;;;4934713;28;45044;-66
2022/04/25 09:37:50;;;;;;;1.20;1.08;;;22.90;43.50;;;;;;4931162;28;45335;-65
2022/04/25 09:40:21;;;;;;;1.83;0.85;;;22.90;43.70;;;;;;4918184;28;45490;-65
2022/04/25 09:42:48;;;;;;;1.25;0.80;;;22.80;43.70;;;;;;4915638;28;45403;-68
2022/04/25 09:45:15;;;;;;;0.90;0.90;;;22.80;43.80;;;;;;4901524;28;45320;-70
2022/04/25 09:47:40;;;;;;;1.10;1.10;;;22.70;43.80;;;;;;4915407;28;45283;-68
2022/04/25 09:50:07;;;;;;;1.27;1.00;;;22.70;43.80;;;;;;4918233;28;45434;-66
2022/04/25 09:52:50;;;;;;;1.50;1.20;;;22.70;43.80;;;;;;4914068;28;44937;-67
2022/04/25 09:55:15;;;;;;;0.95;0.90;;;22.70;43.90;;;;;;4917212;28;45440;-67
2022/04/25 09:57:42;;;;;;;0.65;0.65;;;22.70;44.00;;;;;;4911526;28;45425;-68
2022/04/25 10:00:08;;;;;;;0.98;0.98;;;22.60;43.90;;;;;;4910430;28;45136;-68
2022/04/25 10:02:40;;;;;;;1.13;0.88;;;22.60;44.00;;;;;;4920509;28;44928;-68
2022/04/25 10:05:13;;;;;;;1.00;0.90;;;22.60;44.00;;;;;;4902004;28;45367;-69
2022/04/25 10:07:40;;;;;;;0.80;0.80;;;22.50;44.00;;;;;;4940831;28;45597;-66
2022/04/25 10:10:07;;;;;;;1.13;1.02;;;22.50;44.10;;;;;;4899710;28;45362;-68
2022/04/25 10:12:39;;;;;;;1.27;1.15;;;22.50;44.20;;;;;;4905453;28;45260;-67
2022/04/25 10:15:05;;;;;;;1.23;1.08;;;22.50;44.20;;;;;;4906052;28;45217;-68
2022/04/25 10:17:31;;;;;;;1.08;0.88;;;22.40;44.20;;;;;;4920234;28;45698;-67
2022/04/25 10:20:01;;;;;;;1.20;1.10;;;22.40;44.20;;;;;;4926557;28;45086;-67
2022/04/25 10:22:27;;;;;;;1.33;1.23;;;22.40;44.20;;;;;;4905487;28;45141;-67
2022/04/25 10:24:52;;;;;;;1.10;1.00;;;22.40;44.20;;;;;;4904786;28;45528;-67
2022/04/25 10:27:18;;;;;;;0.80;0.80;;;22.30;44.20;;;;;;4905369;28;45598;-67
2022/04/25 10:29:46;;;;;;;0.80;0.80;;;22.30;44.30;;;;;;4916079;28;44861;-67
2022/04/25 10:32:16;;;;;;;0.70;0.70;;;22.20;44.40;;;;;;4920285;28;45252;-67
2022/04/25 10:35:12;;;;;;;1.00;0.85;;;22.20;44.40;;;;;;4921091;28;44779;-67
2022/04/25 10:37:43;;;;;;;0.85;0.85;;;22.20;44.40;;;;;;4933533;28;45890;-67
2022/04/25 10:40:11;;;;;;;1.20;1.10;;;22.10;44.50;;;;;;4908276;28;45417;-68
2022/04/25 10:45:58;;;;;;;1.00;0.90;;;22.10;44.50;;;;;;4923169;28;45252;-68
2022/04/25 10:48:25;;;;;;;1.00;0.90;;;22.00;44.50;;;;;;4920501;28;46748;-68
2022/04/25 10:51:13;;;;;;;1.10;1.00;;;22.00;44.60;;;;;;4921146;28;44630;-67
2022/04/25 10:54:00;;;;;;;0.90;0.90;;;21.90;44.60;;;;;;4919569;28;45564;-67
2022/04/25 10:56:29;;;;;;;0.85;0.85;;;21.90;44.60;;;;;;4939473;28;45173;-66
2022/04/25 10:59:20;;;;;;;1.13;1.02;;;21.90;44.70;;;;;;4919492;28;46549;-69
2022/04/25 11:01:46;;;;;;;0.93;0.93;;;21.90;44.70;;;;;;4898623;28;45215;-70
2022/04/25 11:04:13;;;;;;;1.15;1.05;;;21.90;44.80;;;;;;4888494;28;45328;-69
2022/04/25 11:06:39;;;;;;;1.92;1.10;;;21.80;44.80;;;;;;4922310;28;45494;-69
2022/04/25 11:09:05;;;;;;;1.30;1.20;;;21.80;44.80;;;;;;4918795;28;45353;-68
2022/04/25 11:11:46;;;;;;;1.80;1.02;;;21.80;44.80;;;;;;4924167;28;44937;-68
2022/04/25 11:14:13;;;;;;;1.48;1.20;;;21.80;44.70;;;;;;4898266;28;45436;-68
2022/04/25 11:16:39;;;;;;;1.02;0.93;;;21.90;44.70;;;;;;4905894;28;45502;-68
2022/04/25 11:19:09;;;;;;;1.23;1.10;;;22.00;44.60;;;;;;4906090;28;46367;-68
2022/04/25 11:21:35;;;;;;;1.20;0.88;;;22.10;44.50;;;;;;4909883;28;45125;-67
2022/04/25 11:24:02;;;;;;;2.03;0.95;;;22.20;44.40;;;;;;4903839;28;45410;-67
2022/04/25 11:26:33;;;;;;;1.13;0.95;;;22.30;44.30;;;;;;4920284;28;45144;-69
2022/04/25 11:29:08;;;;;;;0.80;0.80;;;22.40;44.10;;;;;;4933686;28;46056;-69
2022/04/25 11:31:34;;;;;;;1.10;1.00;;;22.50;43.90;;;;;;4931412;28;45273;-69
2022/04/25 11:34:01;;;;;;;1.10;1.00;;;22.50;43.80;;;;;;4904945;28;44696;-70
2022/04/25 11:36:27;;;;;;;1.00;0.90;;;22.60;43.80;;;;;;4918253;28;45115;-70
2022/04/25 11:41:40;;;;;;;1.08;0.88;;;22.80;43.60;;;;;;4890808;28;45269;-69
2022/04/25 11:44:06;;;;;;;0.75;0.75;;;22.90;43.50;;;;;;4885134;28;45265;-69
2022/04/25 11:46:32;;;;;;;0.70;0.70;;;22.90;43.40;;;;;;4900490;28;45784;-68
2022/04/25 11:48:58;;;;;;;0.80;0.80;;;23.00;43.40;;;;;;4931046;28;45628;-68
2022/04/25 11:51:31;;;;;;;0.65;0.57;;;23.10;43.40;;;;;;4929238;28;45003;-68
2022/04/25 11:53:58;;;;;;;;;;;23.10;43.20;;;;;;4897954;28;45390;-70
2022/04/25 11:56:24;;;;;;;1.95;0.70;;;23.20;43.00;;;;;;4931585;28;45314;-69
2022/04/25 11:58:51;;;;;;;0.80;0.80;;;23.30;43.20;;;;;;4897966;28;45462;-69
2022/04/25 12:01:33;;;;;;;0.80;0.80;;;23.30;43.10;;;;;;4891179;28;45470;-69
2022/04/25 12:04:17;;;;;;;0.80;0.80;;;23.30;42.80;;;;;;4914331;28;45431;-69
2022/04/25 12:07:02;;;;;;;0.60;0.60;;;23.40;42.90;;;;;;4909395;28;44762;-68
2022/04/25 12:18:13;;;;;;;1.08;0.65;;;23.70;42.90;;;;;;4917999;28;44877;-66
2022/04/25 12:20:40;;;;;;;0.65;0.65;;;23.70;42.60;;;;;;4929205;28;46276;-66
2022/04/25 12:23:06;;;;;;;0.60;0.60;;;23.70;42.80;;;;;;4933724;28;45174;-66
2022/04/25 12:25:34;;;;;;;0.80;0.80;;;23.80;42.90;;;;;;4896048;28;45101;-67
2022/04/25 12:28:18;;;;;;;0.60;0.60;;;23.80;42.80;;;;;;4915305;28;45225;-67
2022/04/25 12:30:54;;;;;;;0.80;0.63;;;23.90;42.80;;;;;;4910360;28;45465;-69
2022/04/25 12:33:36;;;;;;;0.70;0.70;;;23.90;42.70;;;;;;4918113;28;46006;-67
2022/04/25 12:36:25;;;;;;;0.60;0.60;;;24.00;42.70;;;;;;4900428;28;45381;-68
2022/04/25 12:39:01;;;;;;;0.73;0.70;;;24.00;42.60;;;;;;4918261;28;45111;-68
2022/04/25 12:41:26;;;;;;;1.67;0.75;;;24.10;42.00;;;;;;4900084;28;47085;-68
2022/04/25 12:43:54;;;;;;;0.65;0.65;;;24.10;42.60;;;;;;4929951;28;45594;-68
2022/04/25 12:46:58;;;;;;;0.77;0.50;;;24.10;42.60;;;;;;4897371;28;45274;-66
2022/04/25 12:49:47;;;;;;;0.63;0.63;;;24.10;42.40;;;;;;4914741;28;45574;-68
2022/04/25 12:52:13;;;;;;;0.60;0.60;;;24.20;42.40;;;;;;4900684;28;45188;-67
2022/04/25 12:54:42;;;;;;;0.60;0.60;;;24.30;42.60;;;;;;4898717;28;45192;-67
2022/04/25 12:57:15;;;;;;;0.82;0.70;;;24.30;42.50;;;;;;4929685;28;45440;-67
2022/04/25 12:59:59;;;;;;;0.65;0.60;;;24.30;42.60;;;;;;4914708;28;44962;-68
2022/04/25 13:02:32;;;;;;;0.52;0.52;;;24.40;42.50;;;;;;4914401;28;45072;-67
2022/04/25 13:05:07;;;;;;;0.60;0.60;;;24.40;42.50;;;;;;4930868;28;45534;-67
2022/04/25 13:07:35;;;;;;;0.50;0.50;;;24.40;42.30;;;;;;4911363;28;46225;-67
2022/04/25 13:10:02;;;;;;;0.60;0.60;;;24.40;42.50;;;;;;4913734;28;45493;-66
2022/04/25 13:12:41;;;;;;;0.60;0.60;;;24.40;42.50;;;;;;4914026;28;45419;-66
2022/04/25 13:15:08;;;;;;;0.80;0.63;;;24.50;43.00;;;;;;4894979;28;45279;-67
2022/04/25 13:17:36;;;;;;;0.63;0.63;;;24.50;42.50;;;;;;4931574;28;45412;-66
2022/04/25 13:20:03;;;;;;;4.80;0.70;;;24.50;42.40;;;;;;4909732;28;45540;-66
2022/04/25 13:22:28;;;;;;;0.50;0.50;;;24.60;42.50;;;;;;4913060;28;45961;-67
2022/04/25 13:24:54;;;;;;;0.93;0.60;;;24.60;42.40;;;;;;4913847;28;45348;-67
2022/04/25 13:27:21;;;;;;;1.10;0.50;;;24.60;42.40;;;;;;4912458;28;45335;-67
2022/04/25 13:29:48;;;;;;;1.08;0.70;;;24.60;42.50;;;;;;4870988;28;45306;-67
2022/04/25 13:32:13;;;;;;;0.75;0.60;;;24.70;42.40;;;;;;4896786;28;47366;-68
2022/04/25 13:34:39;;;;;;;0.52;0.50;;;24.70;42.40;;;;;;4917546;28;45372;-68
2022/04/25 13:37:06;;;;;;;0.55;0.55;;;24.70;42.40;;;;;;4914126;28;45209;-68
2022/04/25 13:39:32;;;;;;;1.60;0.55;;;24.70;42.40;;;;;;4900198;28;45301;-68
2022/04/25 13:42:01;;;;;;;0.47;0.47;;;24.70;42.40;;;;;;4898328;28;45652;-68
2022/04/25 13:44:30;;;;;;;1.23;0.68;;;24.70;42.40;;;;;;4931467;28;44999;-68
2022/04/25 13:46:56;;;;;;;0.52;0.52;;;24.80;43.00;;;;;;4923484;28;45249;-69
2022/04/25 13:49:21;;;;;;;0.50;0.50;;;24.80;42.40;;;;;;4913300;28;45818;-69
2022/04/25 13:51:47;;;;;;;0.50;0.50;;;24.80;42.40;;;;;;4915936;28;45333;-69
2022/04/25 13:54:13;;;;;;;0.60;0.60;;;24.80;42.40;;;;;;4899227;28;45436;-70
2022/04/25 13:56:41;;;;;;;0.60;0.60;;;24.80;42.40;;;;;;4934624;28;45102;-70
2022/04/25 13:59:07;;;;;;;0.50;0.50;;;24.80;42.30;;;;;;4915219;28;44930;-69
2022/04/25 14:01:33;;;;;;;0.60;0.60;;;24.90;42.40;;;;;;4897334;28;47043;-68
2022/04/25 14:03:59;;;;;;;0.50;0.50;;;24.90;42.40;;;;;;4898772;28;44740;-68
2022/04/25 14:06:24;;;;;;;1.27;0.60;;;24.90;42.30;;;;;;4929523;28;45562;-69
2022/04/25 14:08:51;;;;;;;0.40;0.40;;;24.90;42.30;;;;;;4899734;28;44959;-69
2022/04/25 14:11:17;;;;;;;0.50;0.50;;;24.90;42.30;;;;;;4895938;28;45587;-68
2022/04/25 14:13:42;;;;;;;0.40;0.40;;;25.00;42.30;;;;;;4929587;28;45244;-68
2022/04/25 14:16:08;;;;;;;0.55;0.55;;;25.00;42.30;;;;;;4902084;28;45232;-68
2022/04/25 14:18:34;;;;;;;0.50;0.50;;;25.00;42.30;;;;;;4912608;28;45576;-69
2022/04/25 14:20:59;;;;;;;0.88;0.50;;;25.00;42.30;;;;;;4915559;28;45917;-69
2022/04/25 14:23:25;;;;;;;0.63;0.50;;;25.00;42.30;;;;;;4918136;28;44958;-69
2022/04/25 14:25:54;;;;;;;0.38;0.38;;;25.10;42.30;;;;;;4918454;28;45213;-69
2022/04/25 14:28:20;;;;;;;0.52;0.52;;;25.10;42.30;;;;;;4901364;28;44953;-69
2022/04/25 14:30:45;;;;;;;0.52;0.50;;;25.10;42.30;;;;;;4914720;28;45811;-69
2022/04/25 14:33:11;;;;;;;0.40;0.40;;;25.10;42.30;;;;;;4919317;28;45027;-70
2022/04/25 14:35:36;;;;;;;0.60;0.50;;;25.10;42.30;;;;;;4918499;28;45595;-70
2022/04/25 14:38:02;;;;;;;1.40;0.50;;;25.10;42.30;;;;;;4921463;28;45209;-70
2022/04/25 14:40:28;;;;;;;0.47;0.47;;;25.10;42.30;;;;;;4921871;28;45623;-70
2022/04/25 14:42:54;;;;;;;0.50;0.50;;;25.10;42.30;;;;;;4934212;28;45229;-70
2022/04/25 14:45:20;;;;;;;0.40;0.40;;;25.10;42.30;;;;;;4936498;28;45135;-70
2022/04/25 14:47:47;;;;;;;0.60;0.60;;;25.20;42.30;;;;;;4901975;28;45293;-70
2022/04/25 14:55:45;;;;;;;0.50;0.50;;;25.20;42.20;;;;;;4934320;28;46168;-69
2022/04/25 14:58:12;;;;;;;1.00;0.50;;;25.20;42.30;;;;;;4896463;28;45822;-69
2022/04/25 15:00:37;;;;;;;0.50;0.50;;;25.20;42.20;;;;;;4927660;28;45471;-70
2022/04/25 15:03:03;;;;;;;0.50;0.50;;;25.20;42.30;;;;;;4883068;28;45576;-70
2022/04/25 15:05:29;;;;;;;0.45;0.45;;;25.20;42.20;;;;;;4932986;28;45413;-69
2022/04/25 15:08:13;;;;;;;0.40;0.40;;;25.30;42.30;;;;;;4889741;28;45708;-70
2022/04/25 15:10:40;;;;;;;0.50;0.50;;;25.30;42.10;;;;;;4892758;28;45659;-69
2022/04/25 15:13:06;;;;;;;0.50;0.50;;;25.30;42.30;;;;;;4911070;28;45620;-69
2022/04/25 15:15:33;;;;;;;0.55;0.50;;;25.30;42.30;;;;;;4895886;28;45520;-69
2022/04/25 15:17:58;;;;;;;0.80;0.38;;;25.20;42.20;;;;;;4879742;28;45105;-69
2022/04/25 15:20:24;;;;;;;0.80;0.60;;;25.20;42.30;;;;;;4910362;28;45871;-70
2022/04/25 15:22:50;;;;;;;0.68;0.60;;;25.20;42.40;;;;;;4914348;28;45992;-69
2022/04/25 15:25:16;;;;;;;0.60;0.60;;;25.10;42.40;;;;;;4931193;28;45424;-70
2022/04/25 15:27:41;;;;;;;0.50;0.50;;;25.00;42.40;;;;;;4894192;28;44748;-69
2022/04/25 15:30:08;;;;;;;0.40;0.40;;;25.00;42.50;;;;;;4926009;28;45918;-70
2022/04/25 15:32:34;;;;;;;0.52;0.50;;;24.90;42.60;;;;;;4908039;28;45306;-69
2022/04/25 15:35:00;;;;;;;0.63;0.63;;;24.80;42.70;;;;;;4923937;28;45451;-70
2022/04/25 15:37:30;;;;;;;0.95;0.60;;;24.80;42.80;;;;;;4904699;28;45174;-68
2022/04/25 15:40:00;;;;;;;0.60;0.40;;;24.80;42.90;;;;;;4900742;28;45809;-70
2022/04/25 15:42:26;;;;;;;0.70;0.60;;;24.70;42.90;;;;;;4933720;28;45268;-70
2022/04/25 15:44:52;;;;;;;0.52;0.52;;;24.60;42.90;;;;;;4918094;28;45161;-70
2022/04/25 15:47:18;;;;;;;0.50;0.50;;;24.60;43.60;;;;;;4905059;28;45220;-70
2022/04/25 15:49:43;;;;;;;1.10;0.50;;;24.50;43.10;;;;;;4863996;28;46972;-69
2022/04/25 15:52:09;;;;;;;0.65;0.60;;;24.50;43.10;;;;;;4913341;28;45321;-68
2022/04/25 16:00:04;;;;;;;0.45;0.40;;;24.40;43.30;;;;;;4919309;28;45592;-70
2022/04/25 16:02:30;;;;;;;0.60;0.50;;;24.30;43.40;;;;;;4885984;28;45432;-67
2022/04/25 16:04:56;;;;;;;0.40;0.40;;;24.30;43.40;;;;;;4879027;28;45362;-68
2022/04/25 16:07:22;;;;;;;0.52;0.52;;;24.20;43.40;;;;;;4913407;28;45578;-67
2022/04/25 16:09:48;;;;;;;0.60;0.60;;;24.10;43.40;;;;;;4890421;28;46591;-67
2022/04/25 16:12:16;;;;;;;0.43;0.43;;;24.10;43.50;;;;;;4906591;28;45472;-69
2022/04/25 16:14:42;;;;;;;0.57;0.57;;;24.10;43.50;;;;;;4911124;28;45671;-69
2022/04/25 16:17:09;;;;;;;0.68;0.68;;;24.10;43.60;;;;;;4911371;28;45719;-67
2022/04/25 16:19:35;;;;;;;0.98;0.50;;;24.10;43.60;;;;;;4897992;28;46293;-68
2022/04/25 16:22:01;;;;;;;0.60;0.60;;;24.00;43.60;;;;;;4914273;28;45300;-68
2022/04/25 16:24:28;;;;;;;0.60;0.55;;;24.00;43.70;;;;;;4912851;28;45247;-69
2022/04/25 16:26:54;;;;;;;0.60;0.60;;;23.90;43.70;;;;;;4908235;28;45807;-69
2022/04/25 16:29:20;;;;;;;0.85;0.60;;;23.90;43.80;;;;;;4911154;28;45636;-66
2022/04/25 16:31:45;;;;;;;1.42;0.60;;;23.80;43.70;;;;;;4895834;28;45628;-67
2022/04/25 16:34:11;;;;;;;0.60;0.60;;;23.80;43.80;;;;;;4907794;28;45193;-69
2022/04/25 16:36:37;;;;;;;0.50;0.50;;;23.70;43.80;;;;;;4888779;28;45452;-70
2022/04/25 16:39:03;;;;;;;0.50;0.50;;;23.70;43.90;;;;;;4925203;28;45654;-67
2022/04/25 16:41:30;;;;;;;0.47;0.47;;;23.60;43.90;;;;;;4896293;28;44783;-68
2022/04/25 16:43:56;;;;;;;0.43;0.43;;;23.60;44.00;;;;;;4897551;28;45641;-66
2022/04/25 16:46:22;;;;;;;1.77;0.75;;;23.60;44.10;;;;;;4910510;28;45166;-68
2022/04/25 16:48:49;;;;;;;0.60;0.60;;;23.50;44.00;;;;;;4910701;28;46829;-68